首页
METAR-TAF:

METAR-TAF

机场 :

伏尔加格勒, 俄罗斯

纬度: 48-47N, 经度: 044-22E, 海拔: 145米

当前天气观测

该预报发布于25分钟前的08:30 UTC
风速12节,风向西,在西转西南西北之间变化
温度 4°C
湿度 41%
气压 1013 hPa
能见度10公里或以上
1500米以下无云,无积雨云

METAR: URWW 010830Z 28006MPS 250V320 CAVOK 04/M08 Q1013 R24/010070 NOSIG

时间: 12:55 (08:55 UTC)

预报

该预报发布于55分钟前的08:00 UTC
预报有效从01日的 09点(UTC)到 01日的 18点(UTC)
风速14节,风向西北,有时为23节阵风
能见度10公里或以上
多云层高于1600英尺
散云层高于4000英尺, 积雨云.
短暂存在
从 01日的 09点(UTC)到 01日的 15点(UTC)
风速16节,风向西转西北,有时为27节阵风
能見度: 6000
小阵雨
短暂存在
从 01日的 15点(UTC)到 01日的 18点(UTC)
风速12节,风向西转西北,有时为21节阵风

TAF: URWW 010800Z 0109/0118 31007G12MPS 9999 BKN016 SCT040CB TEMPO 0109/0115 29008G14MPS 6000 -SHRA TEMPO 0115/0118 29006G11MPS

超过4000个机场的气象观测和天气预报(METAR&TAF报告)。

可查询的气象台以黄色和红色小点在地图上表示。

将鼠标移到小点上方,可查看气象台名称。

然后点击查看天气观测和预报。

如需切换地图:点击带黑十字的绿色按钮放大地图;点击带横线的绿色按钮缩小地图;或者点击绿色箭头查看邻近地区的地图。


METAR-TAF: